Helena, MT

5:10 PM MDT on September 04, 2015 (GMT -0600)
Helena Regional | | Change Station
CLOSE
Current Station
Airport
Location: Helena,
Elevation: 3865 ft
Nearby Weather Stations

Elev 3865 ft 46.60 °N, 111.99 °W | Updated 17 minutes ago

Mostly Cloudy
Mostly Cloudy
55 °F
Feels Like 55 °F
N
8
Wind Variable Wind from NW

Today
High -- | Low -- °F
--% Chance of Precip.
Yesterday
High -- | Low -- °F
Precip. -- in
6:51 AM 8:01 PM
Waning Gibbous, 55% visible
Pressure 29.99 in
Visibility 10.0 miles
Clouds Few 6000 ft
Mostly Cloudy 8000 ft
Dew Point 46 °F
Humidity 72%
Rainfall 0.41 in
Snow Depth Not available.
UV 2 out of 12
Pollen 5.50 out of 12
Air Quality Not available.
Flu Activity Not available.
METAR KHLN 042253Z 32007KT 10SM FEW060 BKN080 13/08 A2997 RMK AO2 RAB05E31 SLP155 P0001 T01280078
Pressure 29.99 in
Visibility 10.0 miles
Clouds Few 6000 ft
Mostly Cloudy 8000 ft
Dew Point 46 °F
Humidity 72%
Rainfall 0.41 in
Snow Depth Not available.
UV 2 out of 12
Pollen 5.50 out of 12
Air Quality Not available.
Flu Activity Not available.
METAR KHLN 042253Z 32007KT 10SM FEW060 BKN080 13/08 A2997 RMK AO2 RAB05E31 SLP155 P0001 T01280078

10-Day Weather Forecast

×

Almanac

Astronomy

Sep. 04, 2015 Rise Set
Actual Time
Civil Twilight
Nautical Twilight
Astronomical Twilight
Moon
Length of Visible Light
Length of Day
Tomorrow will be .
, % of the Moon is Illuminated

Today's Extremes

State Highs State Lows

Community

WunderPhotos

Upload Photos

1,852,331 photos uploaded!

WunderBlogs® & News

Nearby

Air Quality

  Air Quality AQ Index Pollutant
Not available.

Snow Depth

Station Depth Elevation

Earthquake Activity

City Distance Mag. Time & Date
Minimum magnitude displayed is 2.5.

Coastal Water Temperatures

Place Temperature

Stations

Nearby Weather Stations

Station Location Temp. Windchill Dew Point Humidity Wind Precip. Elev Updated Type